createdAt,value
2019-04-06T00:01:39.522Z,6.10
2019-04-06T00:04:08.487Z,6.10
2019-04-06T00:06:44.869Z,6.00
2019-04-06T00:09:13.863Z,6.00
2019-04-06T00:11:42.916Z,6.00
2019-04-06T00:14:20.131Z,6.00
2019-04-06T00:16:49.110Z,6.00
2019-04-06T00:19:18.091Z,5.90
2019-04-06T00:21:54.301Z,5.90
2019-04-06T00:24:23.860Z,5.90
2019-04-06T00:26:52.845Z,5.80
2019-04-06T00:29:29.436Z,5.80
2019-04-06T00:32:16.421Z,5.80
2019-04-06T00:34:52.743Z,5.80
2019-04-06T00:37:21.695Z,5.80
2019-04-06T00:39:50.770Z,5.80
2019-04-06T00:42:26.932Z,5.80
2019-04-06T00:45:02.409Z,5.80
2019-04-06T00:47:38.093Z,5.80
2019-04-06T00:50:07.288Z,5.80
2019-04-06T00:52:36.247Z,5.80
2019-04-06T00:55:12.853Z,5.90
2019-04-06T00:57:48.173Z,5.90
2019-04-06T01:00:24.130Z,5.90
2019-04-06T01:02:53.129Z,5.90
2019-04-06T01:05:22.119Z,6.00
2019-04-06T01:07:57.921Z,6.00
2019-04-06T01:10:26.890Z,6.10
2019-04-06T01:12:55.853Z,6.10
2019-04-06T01:15:32.405Z,6.20
2019-04-06T01:18:01.367Z,6.20
2019-04-06T01:20:30.330Z,6.30
2019-04-06T01:23:06.766Z,6.40
2019-04-06T01:25:36.332Z,6.50
2019-04-06T01:28:05.330Z,6.50
2019-04-06T01:30:41.285Z,6.50
2019-04-06T01:33:10.722Z,6.60
2019-04-06T01:35:39.698Z,6.60
2019-04-06T01:38:16.277Z,6.70
2019-04-06T01:40:45.278Z,6.70
2019-04-06T01:43:27.761Z,6.70
2019-04-06T01:46:03.562Z,6.70
2019-04-06T01:48:39.245Z,6.70
2019-04-06T01:51:08.203Z,6.60
2019-04-06T01:53:37.167Z,6.60
2019-04-06T01:56:18.742Z,6.70
2019-04-06T01:58:51.016Z,6.70
2019-04-06T02:01:37.222Z,6.70
2019-04-06T02:04:06.216Z,6.60
2019-04-06T02:06:35.167Z,6.60
2019-04-06T02:09:11.955Z,6.50
2019-04-06T02:11:40.913Z,6.40
2019-04-06T02:14:09.889Z,6.30
2019-04-06T02:16:46.681Z,6.20
2019-04-06T02:19:15.674Z,6.20
2019-04-06T02:21:44.673Z,6.10
2019-04-06T02:24:20.795Z,6.10
2019-04-06T02:26:49.782Z,6.10
2019-04-06T02:29:18.748Z,6.10
2019-04-06T02:32:05.816Z,6.10
2019-04-06T02:34:39.327Z,6.00
2019-04-06T02:37:33.326Z,6.00
2019-04-06T02:40:10.163Z,6.00
2019-04-06T02:42:59.379Z,5.90
2019-04-06T02:45:34.882Z,6.00
2019-04-06T02:48:17.218Z,6.00
2019-04-06T02:50:46.322Z,5.90
2019-04-06T02:53:15.506Z,5.90
2019-04-06T02:55:51.875Z,5.80
2019-04-06T02:58:23.091Z,5.90
2019-04-06T03:01:06.188Z,5.90
2019-04-06T03:03:35.238Z,5.90
2019-04-06T03:06:04.348Z,5.90
2019-04-06T03:08:40.764Z,5.80
2019-04-06T03:11:09.747Z,5.80
2019-04-06T03:13:38.912Z,5.90
2019-04-06T03:16:15.656Z,5.90
2019-04-06T03:18:44.648Z,5.90
2019-04-06T03:21:13.643Z,5.90
2019-04-06T03:23:52.113Z,5.90
2019-04-06T03:26:20.235Z,5.90
2019-04-06T03:28:49.229Z,5.80
2019-04-06T03:31:27.341Z,5.80
2019-04-06T03:33:55.217Z,5.80
2019-04-06T03:36:24.553Z,5.80
2019-04-06T03:39:00.763Z,5.80
2019-04-06T03:41:29.723Z,5.80
2019-04-06T03:43:59.049Z,5.80
2019-04-06T03:46:34.776Z,5.90
2019-04-06T03:49:10.277Z,5.90
2019-04-06T03:51:46.338Z,5.90
2019-04-06T03:54:15.544Z,5.90
2019-04-06T03:56:44.516Z,5.90
2019-04-06T03:59:20.872Z,6.00
2019-04-06T04:01:56.289Z,6.00
2019-04-06T04:04:32.271Z,6.00
2019-04-06T04:07:01.260Z,6.10
2019-04-06T04:09:30.480Z,6.10
2019-04-06T04:12:20.101Z,6.00
2019-04-06T04:14:55.723Z,5.90
2019-04-06T04:17:32.221Z,5.90
2019-04-06T04:20:01.213Z,5.80
2019-04-06T04:22:30.156Z,5.80
2019-04-06T04:25:06.745Z,5.70
2019-04-06T04:27:35.779Z,5.60
2019-04-06T04:30:07.159Z,5.50
2019-04-06T04:32:43.402Z,5.50
2019-04-06T04:35:12.494Z,5.40
2019-04-06T04:37:41.658Z,5.40
2019-04-06T04:40:18.282Z,5.40
2019-04-06T04:42:47.267Z,5.40
2019-04-06T04:45:30.128Z,5.30
2019-04-06T04:48:05.849Z,5.40
2019-04-06T04:50:42.467Z,5.30
2019-04-06T04:53:11.508Z,5.40
2019-04-06T04:55:40.504Z,5.40
2019-04-06T04:58:16.289Z,5.50
2019-04-06T05:03:50.502Z,5.60
2019-04-06T05:06:19.495Z,5.90
2019-04-06T05:08:48.513Z,6.00
2019-04-06T05:11:24.477Z,6.10
2019-04-06T05:14:13.151Z,6.10
2019-04-06T05:16:50.220Z,6.10
2019-04-06T05:19:19.297Z,6.10
2019-04-06T05:21:48.478Z,6.10
2019-04-06T05:24:25.131Z,6.10
2019-04-06T05:26:54.303Z,6.20
2019-04-06T05:29:23.257Z,6.40
2019-04-06T05:31:59.550Z,6.60
2019-04-06T05:34:28.510Z,6.60
2019-04-06T05:36:57.500Z,6.50
2019-04-06T05:39:33.448Z,6.50
2019-04-06T05:42:02.425Z,6.50
2019-04-06T05:44:31.385Z,6.50
2019-04-06T05:47:07.626Z,6.60
2019-04-06T05:49:36.654Z,6.60
2019-04-06T05:52:05.635Z,6.60
2019-04-06T05:54:41.626Z,6.60
2019-04-06T05:57:10.586Z,6.50
2019-04-06T05:59:40.977Z,6.60
2019-04-06T06:02:17.470Z,6.60
2019-04-06T06:04:53.042Z,6.60
2019-04-06T06:07:29.269Z,6.80
2019-04-06T06:09:58.225Z,7.00
2019-04-06T06:12:27.205Z,7.30
2019-04-06T06:15:03.552Z,7.40
2019-04-06T06:17:32.532Z,7.50
2019-04-06T06:20:01.494Z,7.70
2019-04-06T06:22:36.995Z,7.80
2019-04-06T06:25:08.578Z,7.90
2019-04-06T06:27:37.678Z,8.00
2019-04-06T06:30:15.823Z,8.10
2019-04-06T06:32:44.788Z,8.20
2019-04-06T06:35:13.748Z,8.40
2019-04-06T06:37:49.929Z,8.50
2019-04-06T06:40:18.968Z,8.60
2019-04-06T06:42:48.011Z,8.90
2019-04-06T06:45:24.714Z,9.10
2019-04-06T06:47:53.846Z,9.20
2019-04-06T06:50:22.841Z,9.40
2019-04-06T06:52:58.910Z,9.40
2019-04-06T06:55:27.974Z,9.40
2019-04-06T06:57:56.957Z,9.60
2019-04-06T07:00:33.202Z,9.60
2019-04-06T07:03:08.942Z,9.80
2019-04-06T07:05:51.450Z,10.00
2019-04-06T07:08:20.471Z,10.20
2019-04-06T07:10:49.624Z,10.40
2019-04-06T07:13:25.009Z,10.60
2019-04-06T07:15:53.965Z,10.40
2019-04-06T07:18:23.127Z,10.30
2019-04-06T07:20:58.875Z,10.00
2019-04-06T07:23:27.840Z,10.10
2019-04-06T07:25:58.927Z,10.30
2019-04-06T07:31:04.642Z,10.70
2019-04-06T07:33:33.862Z,11.00
2019-04-06T07:36:09.326Z,11.10
2019-04-06T07:38:38.504Z,11.20
2019-04-06T07:41:08.007Z,11.30
2019-04-06T09:12:21.491Z,11.10
2019-04-06T09:14:57.367Z,11.00
2019-04-06T09:17:26.452Z,10.80
2019-04-06T09:19:55.826Z,10.70
2019-04-06T09:22:31.940Z,10.60
2019-04-06T09:28:04.083Z,10.40
2019-04-06T09:30:33.041Z,10.40
2019-04-06T09:33:02.276Z,10.30
2019-04-06T09:35:37.992Z,10.40
2019-04-06T09:38:08.824Z,10.40
2019-04-06T09:40:37.883Z,10.40
2019-04-06T09:43:14.109Z,10.60
2019-04-06T09:46:01.355Z,10.60
2019-04-06T09:48:47.505Z,10.70
2019-04-06T09:51:30.633Z,10.80
2019-04-06T09:54:20.125Z,10.90
2019-04-06T09:56:59.758Z,11.00
2019-04-06T09:59:55.247Z,11.00
2019-04-06T10:02:35.354Z,11.10
2019-04-06T10:05:17.146Z,11.30
2019-04-06T21:44:31.070Z,11.40
2019-04-06T21:47:00.117Z,11.30
2019-04-06T21:49:29.229Z,11.30
2019-04-06T21:52:05.751Z,11.30
2019-04-06T21:54:41.267Z,11.30
2019-04-06T21:57:24.483Z,11.20
2019-04-06T21:59:53.819Z,11.20
2019-04-06T22:02:23.004Z,11.10
2019-04-06T22:04:59.981Z,11.10
2019-04-06T22:07:29.683Z,11.00
2019-04-06T22:09:59.706Z,11.00
2019-04-06T22:12:36.549Z,11.00
2019-04-06T22:15:07.551Z,11.00
2019-04-06T22:17:37.310Z,10.90
2019-04-06T22:20:16.140Z,10.90
2019-04-06T22:22:45.936Z,10.90
2019-04-06T22:25:15.311Z,10.90
2019-04-06T22:27:51.519Z,10.90
2019-04-06T22:30:20.826Z,10.90
2019-04-06T22:32:49.873Z,10.90
2019-04-06T22:35:25.936Z,10.90
2019-04-06T22:37:56.194Z,10.80
2019-04-06T22:40:25.619Z,10.90
2019-04-06T22:43:03.026Z,10.80
2019-04-06T22:45:33.631Z,10.80
2019-04-06T22:48:03.507Z,10.70
2019-04-06T22:50:40.166Z,10.80
2019-04-06T22:53:09.275Z,10.70
2019-04-06T22:55:52.283Z,10.70
2019-04-06T22:58:28.172Z,10.60
2019-04-06T23:01:05.563Z,10.60
2019-04-06T23:03:38.939Z,10.60
2019-04-06T23:06:23.287Z,10.60
2019-04-06T23:08:53.062Z,10.60
2019-04-06T23:11:22.330Z,10.50
2019-04-06T23:13:58.650Z,10.50
2019-04-06T23:16:27.666Z,10.50
2019-04-06T23:18:57.164Z,10.40
2019-04-06T23:21:33.543Z,10.40
2019-04-06T23:24:03.680Z,10.30
2019-04-06T23:26:34.437Z,10.30
2019-04-06T23:29:11.107Z,10.30
2019-04-06T23:31:40.277Z,10.20
2019-04-06T23:34:09.284Z,10.20
2019-04-06T23:36:45.516Z,10.20
2019-04-06T23:39:14.591Z,10.10
2019-04-06T23:41:43.742Z,10.10
2019-04-06T23:44:21.207Z,10.00
2019-04-06T23:46:50.251Z,10.00
2019-04-06T23:49:19.255Z,10.00
2019-04-06T23:51:55.463Z,9.90
2019-04-06T23:54:25.275Z,9.90
2019-04-06T23:57:08.113Z,9.90
2019-04-06T23:59:44.359Z,9.90
